Time;durP1;ratioP1;P1;durP2;ratioP2;P2;SDS_P1;SDS_P2;PMS_P1;PMS_P2;Temp;Humidity;BMP_temperature;BMP_pressure;BME280_temperature;BME280_humidity;BME280_pressure;Samples;Min_cycle;Max_cycle;Signal;HPM_P1;HPM_P2
2022/11/07 00:01:46;;;;;;;;;;;11.80;99.90;;;;;;5095379;28;19921;-74
2022/11/07 00:04:12;;;;;;;;;;;11.70;99.90;;;;;;5068801;28;19916;-75
2022/11/07 00:06:38;;;;;;;;;;;11.60;99.90;;;;;;5064592;28;19920;-75
2022/11/07 00:09:04;;;;;;;;;;;11.50;99.90;;;;;;5068604;28;20005;-75
2022/11/07 00:11:29;;;;;;;;;;;11.30;99.90;;;;;;5065115;28;19923;-74
2022/11/07 00:13:55;;;;;;;;;;;11.20;99.90;;;;;;5068537;28;19916;-75
2022/11/07 00:16:20;;;;;;;;;;;11.10;99.90;;;;;;5068147;28;19916;-74
2022/11/07 00:18:46;;;;;;;;;;;11.10;99.90;;;;;;5068567;28;19920;-75
2022/11/07 00:21:11;;;;;;;;;;;10.90;99.90;;;;;;5066712;28;19924;-74
2022/11/07 00:23:38;;;;;;;;;;;10.90;99.90;;;;;;5068034;28;19927;-75
2022/11/07 00:26:06;;;;;;;;;;;10.90;99.90;;;;;;5068675;28;19959;-75
2022/11/07 00:28:32;;;;;;;;;;;10.90;99.90;;;;;;5066780;28;20700;-75
2022/11/07 00:30:58;;;;;;;;;;;10.80;99.90;;;;;;5065345;28;19916;-74
2022/11/07 00:33:23;;;;;;;;;;;10.80;99.90;;;;;;5067679;28;19994;-75
2022/11/07 00:35:49;;;;;;;;;;;10.80;99.90;;;;;;5066645;28;19944;-75
2022/11/07 00:38:14;;;;;;;;;;;11.00;99.90;;;;;;5062999;28;19995;-75
2022/11/07 00:40:40;;;;;;;;;;;11.00;99.90;;;;;;5065647;28;20003;-75
2022/11/07 00:43:05;;;;;;;;;;;11.00;99.90;;;;;;5066136;28;19964;-75
2022/11/07 00:45:31;;;;;;;;;;;11.00;99.90;;;;;;5067248;28;19994;-75
2022/11/07 00:47:56;;;;;;;;;;;11.10;99.90;;;;;;5067184;28;19924;-75
2022/11/07 00:50:22;;;;;;;;;;;11.10;99.90;;;;;;5066070;28;19928;-74
2022/11/07 00:52:47;;;;;;;;;;;11.10;99.90;;;;;;5067614;28;20019;-75
2022/11/07 00:55:13;;;;;;;;;;;11.20;99.90;;;;;;5067655;28;19982;-74
2022/11/07 00:57:38;;;;;;;;;;;11.30;99.90;;;;;;5066373;28;19916;-73
2022/11/07 01:00:04;;;;;;;;;;;11.30;99.90;;;;;;5067850;28;19984;-73
2022/11/07 01:02:30;;;;;;;;;;;11.30;99.90;;;;;;5066914;28;19917;-74
2022/11/07 01:05:10;;;;;;;;;;;11.30;99.90;;;;;;5068297;28;19924;-74
2022/11/07 01:07:36;;;;;;;;;;;11.20;99.90;;;;;;5067782;28;19925;-74
2022/11/07 01:10:04;;;;;;;;;;;11.10;99.90;;;;;;5067002;28;20447;-75
2022/11/07 01:12:31;;;;;;;;;;;11.00;99.90;;;;;;5066160;28;20014;-74
2022/11/07 01:14:57;;;;;;;;;;;10.90;99.90;;;;;;5067564;28;20303;-74
2022/11/07 01:17:22;;;;;;;;;;;10.80;99.90;;;;;;5066846;28;19917;-73
2022/11/07 01:19:48;;;;;;;;;;;10.80;99.90;;;;;;5067393;28;21472;-73
2022/11/07 01:22:13;;;;;;;;;;;10.70;99.90;;;;;;5067244;28;19916;-74
2022/11/07 01:24:39;;;;;;;;;;;10.70;99.90;;;;;;5067871;28;19924;-74
2022/11/07 01:27:05;;;;;;;;;;;10.60;99.90;;;;;;5065057;28;20002;-74
2022/11/07 01:29:30;;;;;;;;;;;10.50;99.90;;;;;;5066932;28;20338;-74
2022/11/07 01:31:56;;;;;;;;;;;10.50;99.90;;;;;;5067619;28;20441;-73
2022/11/07 01:34:21;;;;;;;;;;;10.40;99.90;;;;;;5064873;28;20363;-74
2022/11/07 01:36:47;;;;;;;;;;;10.30;99.90;;;;;;5066036;28;19916;-74
2022/11/07 01:39:12;;;;;;;;;;;10.40;99.90;;;;;;5066684;28;19970;-74
2022/11/07 01:41:38;;;;;;;;;;;10.40;99.90;;;;;;5065229;28;19952;-73
2022/11/07 01:44:23;;;;;;;;;;;10.20;99.90;;;;;;5063440;28;19923;-74
2022/11/07 01:46:51;;;;;;;;;;;10.20;99.90;;;;;;5065643;28;19920;-74
2022/11/07 01:49:21;;;;;;;;;;;10.20;99.90;;;;;;5066445;28;20745;-74
2022/11/07 01:51:46;;;;;;;;;;;10.10;99.90;;;;;;5066041;28;20363;-74
2022/11/07 01:54:12;;;;;;;;;;;10.10;99.90;;;;;;5066090;28;20007;-74
2022/11/07 01:56:40;;;;;;;;;;;10.00;99.90;;;;;;5064839;28;19916;-74
2022/11/07 01:59:07;;;;;;;;;;;10.00;99.90;;;;;;5059830;28;19923;-74
2022/11/07 02:01:33;;;;;;;;;;;10.00;99.90;;;;;;5065345;28;19924;-74
2022/11/07 02:03:59;;;;;;;;;;;9.90;99.90;;;;;;5064894;28;19917;-73
2022/11/07 02:06:29;;;;;;;;;;;10.10;99.90;;;;;;5066559;28;19924;-74
2022/11/07 02:08:55;;;;;;;;;;;10.10;99.90;;;;;;5087599;28;19920;-74
2022/11/07 02:11:21;;;;;;;;;;;10.20;99.90;;;;;;5066094;28;19927;-73
2022/11/07 02:13:46;;;;;;;;;;;10.10;99.90;;;;;;5066587;28;19916;-74
2022/11/07 02:16:12;;;;;;;;;;;10.20;99.90;;;;;;5065317;28;19916;-74
2022/11/07 02:18:39;;;;;;;;;;;10.20;99.90;;;;;;5064654;28;19916;-75
2022/11/07 02:21:30;;;;;;;;;;;10.20;99.90;;;;;;5066009;28;19917;-74
2022/11/07 02:24:19;;;;;;;;;;;10.20;99.90;;;;;;5035593;28;19924;-74
2022/11/07 02:26:44;;;;;;;;;;;9.90;99.90;;;;;;5063426;28;19923;-74
2022/11/07 02:29:11;;;;;;;;;;;9.70;99.90;;;;;;5066343;28;19921;-74
2022/11/07 02:31:37;;;;;;;;;;;9.60;99.90;;;;;;5066399;28;19987;-74
2022/11/07 02:34:02;;;;;;;;;;;9.70;99.90;;;;;;5066665;28;19940;-74
2022/11/07 02:36:28;;;;;;;;;;;9.70;99.90;;;;;;5065854;28;19920;-73
2022/11/07 02:38:57;;;;;;;;;;;9.80;99.90;;;;;;5067677;28;19921;-74
2022/11/07 02:41:29;;;;;;;;;;;9.70;99.90;;;;;;5066052;28;19935;-74
2022/11/07 02:44:03;;;;;;;;;;;9.70;99.90;;;;;;5066122;28;19916;-74
2022/11/07 02:46:29;;;;;;;;;;;9.70;99.90;;;;;;5069021;28;19920;-74
2022/11/07 02:48:56;;;;;;;;;;;9.70;99.90;;;;;;5068516;28;20634;-74
2022/11/07 02:51:22;;;;;;;;;;;9.70;99.90;;;;;;5068060;28;19917;-74
2022/11/07 02:53:47;;;;;;;;;;;9.60;99.90;;;;;;5069757;28;21211;-74
2022/11/07 02:56:13;;;;;;;;;;;9.60;99.90;;;;;;5070331;28;20455;-74
2022/11/07 02:58:38;;;;;;;;;;;9.60;99.90;;;;;;5061534;28;19917;-73
2022/11/07 03:01:07;;;;;;;;;;;9.60;99.90;;;;;;5069733;28;19917;-74
2022/11/07 03:03:34;;;;;;;;;;;9.60;99.90;;;;;;5069597;28;19920;-74
2022/11/07 03:06:00;;;;;;;;;;;9.60;99.90;;;;;;5069213;28;19931;-74
2022/11/07 03:08:25;;;;;;;;;;;9.60;99.90;;;;;;5069335;28;19928;-74
2022/11/07 03:10:51;;;;;;;;;;;9.50;99.90;;;;;;5068556;28;19917;-74
2022/11/07 03:13:16;;;;;;;;;;;9.50;99.90;;;;;;5068745;28;19916;-74
2022/11/07 03:15:42;;;;;;;;;;;9.40;99.90;;;;;;5068212;28;19916;-74
2022/11/07 03:18:07;;;;;;;;;;;9.30;99.90;;;;;;5090594;28;19917;-74
2022/11/07 03:20:33;;;;;;;;;;;9.30;99.90;;;;;;5063379;28;19917;-74
2022/11/07 03:22:58;;;;;;;;;;;9.30;99.90;;;;;;5068839;28;19920;-73
2022/11/07 03:25:24;;;;;;;;;;;9.20;99.90;;;;;;5070109;28;20007;-74
2022/11/07 03:27:49;;;;;;;;;;;9.20;99.90;;;;;;5067926;28;20007;-73
2022/11/07 03:30:15;;;;;;;;;;;9.20;99.90;;;;;;5064183;28;20399;-74
2022/11/07 03:32:41;;;;;;;;;;;9.20;99.90;;;;;;5067864;28;19994;-74
2022/11/07 03:35:06;;;;;;;;;;;9.20;99.90;;;;;;5067903;28;19930;-74
2022/11/07 03:37:32;;;;;;;;;;;9.10;99.90;;;;;;5065153;28;19967;-73
2022/11/07 03:39:57;;;;;;;;;;;9.10;99.90;;;;;;5069269;28;19924;-74
2022/11/07 03:42:23;;;;;;;;;;;9.00;99.90;;;;;;5067601;28;19920;-74
2022/11/07 03:44:48;;;;;;;;;;;9.00;99.90;;;;;;5063117;28;19916;-74
2022/11/07 03:47:14;;;;;;;;;;;9.10;99.90;;;;;;5069423;28;19921;-74
2022/11/07 03:49:39;;;;;;;;;;;9.10;99.90;;;;;;5068113;28;19942;-74
2022/11/07 03:52:05;;;;;;;;;;;9.10;99.90;;;;;;5062850;28;19939;-74
2022/11/07 03:54:30;;;;;;;;;;;9.10;99.90;;;;;;5069172;28;20768;-74
2022/11/07 03:56:56;;;;;;;;;;;9.10;99.90;;;;;;5068022;28;19920;-74
2022/11/07 03:59:21;;;;;;;;;;;9.00;99.90;;;;;;5069347;28;19923;-73
2022/11/07 04:01:47;;;;;;;;;;;9.00;99.90;;;;;;5068576;28;19913;-74
2022/11/07 04:04:13;;;;;;;;;;;9.00;99.90;;;;;;5069183;28;19963;-73
2022/11/07 04:06:38;;;;;;;;;;;9.00;99.90;;;;;;5067105;28;20514;-74
2022/11/07 04:09:04;;;;;;;;;;;8.90;99.90;;;;;;5068597;28;20011;-73
2022/11/07 04:19:42;;;;;;;;;;;8.60;99.90;;;;;;5069432;28;20482;-74
2022/11/07 04:22:08;;;;;;;;;;;8.70;99.90;;;;;;5067372;28;19946;-74
2022/11/07 04:24:33;;;;;;;;;;;8.60;99.90;;;;;;5068302;28;19974;-74
2022/11/07 04:29:57;;;;;;;;;;;8.70;99.90;;;;;;5043502;28;19920;-73
2022/11/07 04:32:23;;;;;;;;;;;8.70;99.90;;;;;;5068787;28;19916;-74
2022/11/07 04:34:49;;;;;;;;;;;8.70;99.90;;;;;;5068418;28;20019;-75
2022/11/07 04:37:15;;;;;;;;;;;8.80;99.90;;;;;;5062740;28;20417;-74
2022/11/07 04:39:40;;;;;;;;;;;8.80;99.90;;;;;;5062997;28;19923;-74
2022/11/07 04:42:06;;;;;;;;;;;8.80;99.90;;;;;;5066672;28;19978;-74
2022/11/07 04:44:31;;;;;;;;;;;8.80;99.90;;;;;;5067253;28;20370;-74
2022/11/07 04:46:57;;;;;;;;;;;8.80;99.90;;;;;;5066515;28;20039;-74
2022/11/07 04:49:22;;;;;;;;;;;8.80;99.90;;;;;;5067292;28;19920;-74
2022/11/07 04:51:48;;;;;;;;;;;8.80;99.90;;;;;;5065888;28;19993;-74
2022/11/07 04:54:13;;;;;;;;;;;8.70;99.90;;;;;;5065930;28;19916;-75
2022/11/07 04:56:39;;;;;;;;;;;8.70;99.90;;;;;;5068061;28;20417;-75
2022/11/07 04:59:05;;;;;;;;;;;8.80;99.90;;;;;;5068388;28;19916;-75
2022/11/07 05:01:30;;;;;;;;;;;8.70;99.90;;;;;;5067761;28;19950;-74
2022/11/07 05:03:56;;;;;;;;;;;8.70;99.90;;;;;;5067898;28;19920;-74
2022/11/07 05:06:22;;;;;;;;;;;8.70;99.90;;;;;;5067585;28;19928;-74
2022/11/07 05:08:47;;;;;;;;;;;8.60;99.90;;;;;;5065861;28;19920;-72
2022/11/07 05:11:13;;;;;;;;;;;8.70;99.90;;;;;;5067704;28;20103;-73
2022/11/07 05:13:38;;;;;;;;;;;8.60;99.90;;;;;;5067263;28;20471;-74
2022/11/07 05:16:04;;;;;;;;;;;8.60;99.90;;;;;;5059246;28;19920;-74
2022/11/07 05:18:29;;;;;;;;;;;8.60;99.90;;;;;;5066923;28;20008;-75
2022/11/07 05:20:55;;;;;;;;;;;8.50;99.90;;;;;;5065896;28;19924;-74
2022/11/07 05:23:21;;;;;;;;;;;8.40;99.90;;;;;;5067695;28;20036;-75
2022/11/07 05:25:48;;;;;;;;;;;8.50;99.90;;;;;;5067807;28;20109;-74
2022/11/07 05:28:18;;;;;;;;;;;8.50;99.90;;;;;;5061163;28;19975;-74
2022/11/07 05:30:44;;;;;;;;;;;8.50;99.90;;;;;;5065982;28;19923;-74
2022/11/07 05:33:11;;;;;;;;;;;8.50;99.90;;;;;;5065866;28;20354;-74
2022/11/07 05:35:37;;;;;;;;;;;8.50;99.90;;;;;;5062992;28;19920;-74
2022/11/07 05:38:02;;;;;;;;;;;8.50;99.90;;;;;;5067108;28;19916;-73
2022/11/07 05:40:28;;;;;;;;;;;8.40;99.90;;;;;;5066974;28;20512;-74
2022/11/07 05:43:04;;;;;;;;;;;8.30;99.90;;;;;;5067468;28;20287;-77
2022/11/07 05:45:30;;;;;;;;;;;8.30;99.90;;;;;;5066098;28;19983;-76
2022/11/07 05:48:00;;;;;;;;;;;8.30;99.90;;;;;;5060875;28;19927;-76
2022/11/07 05:50:26;;;;;;;;;;;8.30;99.90;;;;;;5062528;28;19960;-75
2022/11/07 05:52:51;;;;;;;;;;;8.30;99.90;;;;;;5062694;28;20543;-76
2022/11/07 05:55:17;;;;;;;;;;;8.30;99.90;;;;;;5067180;28;20376;-77
2022/11/07 05:57:43;;;;;;;;;;;8.40;99.90;;;;;;5065657;28;19962;-76
2022/11/07 06:00:09;;;;;;;;;;;8.40;99.90;;;;;;5063207;28;20387;-75
2022/11/07 06:02:34;;;;;;;;;;;8.40;99.90;;;;;;5062838;28;20275;-77
2022/11/07 06:05:00;;;;;;;;;;;8.40;99.90;;;;;;5063546;28;19921;-77
2022/11/07 06:07:25;;;;;;;;;;;8.40;99.90;;;;;;5058794;28;20445;-76
2022/11/07 06:09:51;;;;;;;;;;;8.50;99.90;;;;;;5059692;28;20607;-75
2022/11/07 06:12:16;;;;;;;;;;;8.50;99.90;;;;;;5058146;28;20379;-76
2022/11/07 06:14:42;;;;;;;;;;;8.50;99.90;;;;;;5050021;28;20826;-75
2022/11/07 06:17:07;;;;;;;;;;;8.40;99.90;;;;;;5051071;28;19916;-75
2022/11/07 06:19:33;;;;;;;;;;;8.40;99.90;;;;;;5054991;28;19917;-75
2022/11/07 06:21:59;;;;;;;;;;;8.30;99.90;;;;;;5058950;28;20544;-75
2022/11/07 06:24:24;;;;;;;;;;;8.30;99.90;;;;;;5058699;28;20384;-74
2022/11/07 06:26:50;;;;;;;;;;;8.30;99.90;;;;;;5082879;28;19983;-74
2022/11/07 06:29:15;;;;;;;;;;;8.30;99.90;;;;;;5064741;28;19925;-75
2022/11/07 06:31:41;;;;;;;;;;;8.30;99.90;;;;;;5056026;28;20538;-74
2022/11/07 06:34:06;;;;;;;;;;;8.20;99.90;;;;;;5056136;28;19924;-74
2022/11/07 06:36:32;;;;;;;;;;;8.20;99.90;;;;;;5065497;28;19963;-75
2022/11/07 06:38:57;;;;;;;;;;;8.20;99.90;;;;;;5064342;28;19917;-75
2022/11/07 06:41:23;;;;;;;;;;;8.20;99.90;;;;;;5070908;28;19917;-74
2022/11/07 06:43:50;;;;;;;;;;;8.20;99.90;;;;;;5058900;28;19917;-73
2022/11/07 06:46:18;;;;;;;;;;;8.20;99.90;;;;;;5053796;28;20463;-74
2022/11/07 06:48:44;;;;;;;;;;;8.20;99.90;;;;;;5060769;28;19924;-75
2022/11/07 06:51:09;;;;;;;;;;;8.30;99.90;;;;;;5054293;28;19913;-74
2022/11/07 06:53:35;;;;;;;;;;;8.30;99.90;;;;;;5055696;28;19913;-74
2022/11/07 06:56:02;;;;;;;;;;;8.30;99.90;;;;;;5060664;28;19913;-74
2022/11/07 06:58:27;;;;;;;;;;;8.40;99.90;;;;;;5060219;28;19912;-75
2022/11/07 07:00:57;;;;;;;;;;;8.40;99.90;;;;;;5060617;28;19916;-75
2022/11/07 07:03:22;;;;;;;;;;;8.60;99.90;;;;;;5057457;28;19916;-74
2022/11/07 07:05:48;;;;;;;;;;;9.10;99.90;;;;;;5058367;28;19940;-74
2022/11/07 07:08:13;;;;;;;;;;;9.50;99.90;;;;;;5065014;28;19916;-75
2022/11/07 07:10:42;;;;;;;;;;;9.80;99.90;;;;;;5063777;28;19912;-74
2022/11/07 07:13:08;;;;;;;;;;;10.00;99.90;;;;;;5070418;28;19942;-75
2022/11/07 07:15:34;;;;;;;;;;;10.20;99.90;;;;;;5055193;28;19919;-74
2022/11/07 07:18:00;;;;;;;;;;;10.20;99.90;;;;;;5061016;28;20327;-74
2022/11/07 07:20:25;;;;;;;;;;;10.30;99.90;;;;;;5054396;28;20372;-74
2022/11/07 07:22:51;;;;;;;;;;;10.30;99.90;;;;;;5050259;28;19935;-74
2022/11/07 07:25:16;;;;;;;;;;;10.40;99.90;;;;;;5058144;28;19916;-75
2022/11/07 07:27:42;;;;;;;;;;;10.70;99.90;;;;;;5052591;28;19980;-75
2022/11/07 07:30:08;;;;;;;;;;;10.70;99.90;;;;;;5055406;28;19928;-75
2022/11/07 07:32:34;;;;;;;;;;;11.00;99.90;;;;;;5085381;28;19980;-75
2022/11/07 07:34:59;;;;;;;;;;;11.00;99.90;;;;;;5056743;28;19912;-75
2022/11/07 07:37:25;;;;;;;;;;;11.20;99.90;;;;;;5054492;28;20982;-75
2022/11/07 07:39:51;;;;;;;;;;;11.20;99.90;;;;;;5058148;28;19936;-74
2022/11/07 07:42:17;;;;;;;;;;;11.40;99.90;;;;;;5059457;28;20525;-77
2022/11/07 07:44:42;;;;;;;;;;;11.70;99.90;;;;;;5055911;28;19916;-75
2022/11/07 07:47:08;;;;;;;;;;;11.60;99.90;;;;;;5061475;28;20446;-75
2022/11/07 07:49:33;;;;;;;;;;;11.70;99.90;;;;;;5067165;28;19924;-75
2022/11/07 07:51:59;;;;;;;;;;;11.70;99.90;;;;;;5066912;28;20413;-75
2022/11/07 07:54:24;;;;;;;;;;;11.60;99.90;;;;;;5072598;28;20452;-75
2022/11/07 07:56:50;;;;;;;;;;;11.70;99.90;;;;;;5067561;28;20003;-76
2022/11/07 07:59:15;;;;;;;;;;;12.00;99.90;;;;;;5070139;28;19951;-75
2022/11/07 08:01:41;;;;;;;;;;;12.10;99.90;;;;;;5068466;28;19963;-75
2022/11/07 08:04:06;;;;;;;;;;;12.00;99.90;;;;;;5068314;28;20016;-75
2022/11/07 08:06:33;;;;;;;;;;;12.20;99.90;;;;;;5069057;28;19938;-75
2022/11/07 08:08:59;;;;;;;;;;;12.50;99.90;;;;;;5067608;28;19959;-74
2022/11/07 08:11:24;;;;;;;;;;;12.60;99.90;;;;;;5070294;28;19959;-75
2022/11/07 08:13:50;;;;;;;;;;;12.60;99.90;;;;;;5064051;28;20067;-76
2022/11/07 08:16:16;;;;;;;;;;;12.60;99.90;;;;;;5050505;28;20007;-75
2022/11/07 08:18:41;;;;;;;;;;;12.80;99.90;;;;;;5065554;28;19919;-76
2022/11/07 08:21:07;;;;;;;;;;;12.80;99.90;;;;;;5064967;28;19931;-75
2022/11/07 08:23:33;;;;;;;;;;;12.90;99.90;;;;;;5053067;28;20518;-75
2022/11/07 08:26:00;;;;;;;;;;;12.80;99.90;;;;;;5051360;28;19960;-75
2022/11/07 08:28:26;;;;;;;;;;;12.90;99.90;;;;;;5057868;28;21225;-75
2022/11/07 08:30:55;;;;;;;;;;;13.00;99.90;;;;;;5058511;28;19986;-75
2022/11/07 08:33:20;;;;;;;;;;;13.00;99.90;;;;;;5053884;28;19913;-75
2022/11/07 08:35:46;;;;;;;;;;;13.10;99.90;;;;;;5051487;28;20778;-75
2022/11/07 08:38:11;;;;;;;;;;;13.10;99.90;;;;;;5064306;28;20713;-75
2022/11/07 08:40:37;;;;;;;;;;;13.00;99.90;;;;;;5079249;28;20696;-75
2022/11/07 08:43:02;;;;;;;;;;;13.00;99.90;;;;;;5059199;28;19924;-76
2022/11/07 08:45:28;;;;;;;;;;;13.10;99.90;;;;;;5068020;28;19912;-75
2022/11/07 08:47:57;;;;;;;;;;;13.40;99.90;;;;;;5067192;28;19920;-75
2022/11/07 08:50:23;;;;;;;;;;;13.70;99.90;;;;;;5068710;28;19913;-75
2022/11/07 08:52:48;;;;;;;;;;;13.70;99.90;;;;;;5067259;28;20489;-75
2022/11/07 08:55:14;;;;;;;;;;;13.80;99.90;;;;;;5078455;28;19913;-75
2022/11/07 08:57:39;;;;;;;;;;;13.80;99.90;;;;;;5067991;28;20027;-76
2022/11/07 09:00:05;;;;;;;;;;;14.20;99.90;;;;;;5068695;28;19919;-75
2022/11/07 09:02:31;;;;;;;;;;;14.00;99.90;;;;;;5066827;28;19912;-75
2022/11/07 09:04:56;;;;;;;;;;;14.10;99.90;;;;;;5065160;28;19929;-75
2022/11/07 09:07:22;;;;;;;;;;;14.00;99.90;;;;;;5067942;28;20281;-75
2022/11/07 09:09:47;;;;;;;;;;;13.90;99.90;;;;;;5068506;28;20679;-75
2022/11/07 09:12:13;;;;;;;;;;;14.30;99.90;;;;;;5068267;28;19913;-75
2022/11/07 09:14:38;;;;;;;;;;;14.20;99.90;;;;;;5067847;28;19981;-76
2022/11/07 09:17:04;;;;;;;;;;;14.40;99.90;;;;;;5066361;28;19922;-75
2022/11/07 09:19:29;;;;;;;;;;;14.20;99.90;;;;;;5066275;28;20008;-76
2022/11/07 09:21:55;;;;;;;;;;;14.40;99.90;;;;;;5068308;28;19919;-76
2022/11/07 09:24:21;;;;;;;;;;;14.30;99.90;;;;;;5068618;28;20559;-74
2022/11/07 09:26:46;;;;;;;;;;;14.30;99.90;;;;;;5061379;28;20385;-75
2022/11/07 09:29:12;;;;;;;;;;;14.20;99.90;;;;;;5068080;28;20395;-75
2022/11/07 09:31:37;;;;;;;;;;;14.30;99.90;;;;;;5066219;28;20496;-75
2022/11/07 09:34:03;;;;;;;;;;;14.30;99.90;;;;;;5064498;28;19913;-75
2022/11/07 09:36:28;;;;;;;;;;;14.50;99.90;;;;;;5066285;28;19913;-76
2022/11/07 09:38:55;;;;;;;;;;;14.60;99.90;;;;;;5067815;28;20463;-75
2022/11/07 09:41:21;;;;;;;;;;;14.70;99.90;;;;;;5067343;28;19960;-75
2022/11/07 09:43:52;;;;;;;;;;;14.90;99.90;;;;;;5065510;28;20013;-75
2022/11/07 09:46:37;;;;;;;;;;;14.90;99.90;;;;;;5065956;28;19913;-75
2022/11/07 09:49:08;;;;;;;;;;;14.80;99.90;;;;;;5066005;28;20336;-75
2022/11/07 09:51:38;;;;;;;;;;;14.80;99.90;;;;;;5067444;28;19917;-76
2022/11/07 09:54:06;;;;;;;;;;;14.90;99.90;;;;;;5065834;28;19986;-74
2022/11/07 09:56:32;;;;;;;;;;;15.00;99.90;;;;;;5062921;28;19920;-76
2022/11/07 09:59:00;;;;;;;;;;;14.90;99.90;;;;;;5065826;28;20453;-75
2022/11/07 10:01:27;;;;;;;;;;;15.00;99.90;;;;;;5067258;28;20451;-76
2022/11/07 10:03:52;;;;;;;;;;;15.00;99.90;;;;;;5066471;28;19913;-75
2022/11/07 10:06:26;;;;;;;;;;;15.00;99.90;;;;;;5067429;28;19936;-75
2022/11/07 10:08:54;;;;;;;;;;;15.00;99.90;;;;;;5065922;28;19916;-75
2022/11/07 10:11:26;;;;;;;;;;;15.10;99.90;;;;;;5067888;28;19919;-76
2022/11/07 10:14:11;;;;;;;;;;;15.10;99.90;;;;;;5067610;28;19913;-76
2022/11/07 10:16:37;;;;;;;;;;;15.20;99.90;;;;;;5066330;28;19917;-76
2022/11/07 10:19:06;;;;;;;;;;;15.30;99.90;;;;;;5066979;28;19913;-76
2022/11/07 10:21:46;;;;;;;;;;;15.30;99.90;;;;;;5066449;28;19920;-74
2022/11/07 10:24:25;;;;;;;;;;;15.30;99.90;;;;;;5066727;28;20568;-76
2022/11/07 10:26:51;;;;;;;;;;;15.30;99.90;;;;;;5066760;28;20321;-74
2022/11/07 10:29:18;;;;;;;;;;;15.30;99.90;;;;;;5065406;28;19947;-75
2022/11/07 10:31:47;;;;;;;;;;;15.50;99.90;;;;;;5060706;28;20434;-76
2022/11/07 10:34:16;;;;;;;;;;;15.60;99.90;;;;;;5067355;28;19912;-75
2022/11/07 10:36:41;;;;;;;;;;;15.80;99.90;;;;;;5060740;28;19923;-75
2022/11/07 10:39:11;;;;;;;;;;;15.90;99.90;;;;;;5067485;28;19913;-76
2022/11/07 10:41:37;;;;;;;;;;;15.90;99.90;;;;;;5065416;28;19917;-76
2022/11/07 10:44:06;;;;;;;;;;;15.90;98.10;;;;;;5061337;28;19924;-76
2022/11/07 10:46:39;;;;;;;;;;;15.90;97.90;;;;;;5058339;28;20448;-76
2022/11/07 10:49:16;;;;;;;;;;;15.80;98.10;;;;;;5066253;28;19916;-75
2022/11/07 10:51:42;;;;;;;;;;;15.90;99.40;;;;;;5065884;28;19984;-76
2022/11/07 10:54:29;;;;;;;;;;;15.90;99.10;;;;;;5066867;28;20500;-75
2022/11/07 10:57:11;;;;;;;;;;;15.90;99.90;;;;;;5063294;28;19959;-76
2022/11/07 10:59:43;;;;;;;;;;;15.90;99.20;;;;;;5067059;28;19916;-75
2022/11/07 11:02:29;;;;;;;;;;;15.90;99.70;;;;;;5067205;28;19912;-75
2022/11/07 11:04:55;;;;;;;;;;;15.90;98.70;;;;;;5063942;28;19927;-76
2022/11/07 11:07:24;;;;;;;;;;;15.90;97.80;;;;;;5068805;28;19912;-75
2022/11/07 11:09:54;;;;;;;;;;;16.00;98.80;;;;;;5070472;28;19916;-76
2022/11/07 11:12:22;;;;;;;;;;;16.00;99.90;;;;;;5070295;28;19997;-75
2022/11/07 11:14:48;;;;;;;;;;;15.90;99.10;;;;;;5069131;28;19912;-76
2022/11/07 11:17:32;;;;;;;;;;;15.90;98.30;;;;;;5070244;28;19919;-75
2022/11/07 11:19:58;;;;;;;;;;;15.90;98.00;;;;;;5068829;28;19913;-75
2022/11/07 11:22:24;;;;;;;;;;;16.00;97.10;;;;;;5070570;28;19921;-75
2022/11/07 11:25:22;;;;;;;;;;;16.00;99.20;;;;;;5070708;28;19912;-76
2022/11/07 11:27:51;;;;;;;;;;;15.90;98.00;;;;;;5047504;28;20446;-75
2022/11/07 11:30:18;;;;;;;;;;;15.70;98.30;;;;;;5068467;28;19917;-76
2022/11/07 11:32:43;;;;;;;;;;;15.90;97.40;;;;;;5069919;28;19919;-76
2022/11/07 11:35:27;;;;;;;;;;;15.80;96.60;;;;;;5069635;28;20302;-76
2022/11/07 11:38:03;;;;;;;;;;;15.80;97.20;;;;;;5069696;28;19918;-76
2022/11/07 11:40:32;;;;;;;;;;;15.90;97.90;;;;;;5063733;28;19923;-75
2022/11/07 11:43:03;;;;;;;;;;;15.90;97.30;;;;;;5069760;28;19912;-75
2022/11/07 11:45:49;;;;;;;;;;;15.90;98.80;;;;;;5070140;28;19991;-75
2022/11/07 11:48:20;;;;;;;;;;;15.90;97.90;;;;;;5045690;28;19924;-75
2022/11/07 11:51:05;;;;;;;;;;;15.80;97.70;;;;;;5069977;28;19912;-75
2022/11/07 11:53:30;;;;;;;;;;;15.80;98.20;;;;;;5064420;28;19912;-76
2022/11/07 11:56:04;;;;;;;;;;;15.90;97.90;;;;;;5070082;28;19923;-75
2022/11/07 11:58:29;;;;;;;;;;;15.90;96.60;;;;;;5065701;28;20387;-76
2022/11/07 12:01:15;;;;;;;;;;;16.00;95.90;;;;;;5069862;28;19935;-76
2022/11/07 12:03:48;;;;;;;;;;;15.90;96.30;;;;;;5065549;28;19913;-76
2022/11/07 12:06:15;;;;;;;;;;;15.80;96.00;;;;;;5067711;28;19981;-76
2022/11/07 12:08:50;;;;;;;;;;;16.00;95.80;;;;;;5068621;28;19972;-75
2022/11/07 12:11:36;;;;;;;;;;;15.90;95.20;;;;;;5060894;28;19913;-76
2022/11/07 12:14:20;;;;;;;;;;;16.00;94.80;;;;;;5063294;28;19920;-76
2022/11/07 12:16:52;;;;;;;;;;;15.90;95.20;;;;;;5079692;28;19913;-76
2022/11/07 12:19:18;;;;;;;;;;;15.80;96.40;;;;;;5065433;28;19954;-75
2022/11/07 12:21:46;;;;;;;;;;;15.80;96.00;;;;;;5068605;28;20459;-75
2022/11/07 12:24:26;;;;;;;;;;;15.90;95.90;;;;;;5067274;28;19972;-76
2022/11/07 12:26:58;;;;;;;;;;;15.90;96.10;;;;;;5062518;28;19919;-75
2022/11/07 12:29:34;;;;;;;;;;;16.00;95.80;;;;;;5063151;28;20743;-76
2022/11/07 12:32:12;;;;;;;;;;;16.00;96.30;;;;;;5068816;28;19975;-76
2022/11/07 12:34:49;;;;;;;;;;;16.00;95.70;;;;;;5067353;28;19917;-76
2022/11/07 12:37:27;;;;;;;;;;;16.10;98.10;;;;;;5066800;28;19913;-76
2022/11/07 12:40:05;;;;;;;;;;;16.00;95.50;;;;;;5069159;28;19913;-76
2022/11/07 12:43:03;;;;;;;;;;;16.00;95.60;;;;;;5067981;28;20471;-76
2022/11/07 12:45:47;;;;;;;;;;;16.10;95.30;;;;;;5035191;28;19962;-76
2022/11/07 12:48:29;;;;;;;;;;;16.20;94.50;;;;;;5065444;28;19971;-76
2022/11/07 12:51:13;;;;;;;;;;;16.10;92.40;;;;;;5067686;28;19919;-76
2022/11/07 12:53:58;;;;;;;;;;;16.10;93.30;;;;;;5064073;28;19959;-76
2022/11/07 12:56:27;;;;;;;;;;;16.00;92.90;;;;;;5066659;28;19912;-76
2022/11/07 12:58:53;;;;;;;;;;;16.10;92.30;;;;;;5068274;28;20011;-75
2022/11/07 13:01:22;;;;;;;;;;;16.00;91.90;;;;;;5067883;28;20015;-77
2022/11/07 13:04:01;;;;;;;;;;;16.00;92.00;;;;;;5066374;28;19916;-76
2022/11/07 13:06:32;;;;;;;;;;;16.10;91.20;;;;;;5066270;28;19936;-76
2022/11/07 13:09:03;;;;;;;;;;;16.10;91.80;;;;;;5065893;28;19916;-76
2022/11/07 13:11:29;;;;;;;;;;;16.20;91.50;;;;;;5067911;28;19946;-76
2022/11/07 13:14:02;;;;;;;;;;;16.10;91.00;;;;;;5068245;28;20347;-75
2022/11/07 13:16:29;;;;;;;;;;;16.10;91.80;;;;;;5067595;28;20021;-75
2022/11/07 13:19:06;;;;;;;;;;;16.00;91.00;;;;;;5061002;28;19913;-75
2022/11/07 13:21:42;;;;;;;;;;;16.00;91.30;;;;;;5067649;28;19912;-76
2022/11/07 13:24:17;;;;;;;;;;;16.10;90.60;;;;;;5066495;28;20387;-77
2022/11/07 13:26:43;;;;;;;;;;;16.00;91.50;;;;;;5067601;28;19912;-76
2022/11/07 13:29:44;;;;;;;;;;;16.10;91.90;;;;;;5067474;28;19970;-76
2022/11/07 13:32:11;;;;;;;;;;;16.20;90.70;;;;;;5031345;28;19913;-76
2022/11/07 13:34:41;;;;;;;;;;;16.10;90.30;;;;;;5061669;28;20761;-76
2022/11/07 13:37:09;;;;;;;;;;;16.00;90.70;;;;;;5067340;28;19912;-76
2022/11/07 13:39:35;;;;;;;;;;;15.90;90.40;;;;;;5067979;28;19912;-75
2022/11/07 13:42:01;;;;;;;;;;;16.30;88.10;;;;;;5067957;28;19919;-76
2022/11/07 13:44:28;;;;;;;;;;;16.00;88.40;;;;;;5086538;28;20379;-75
2022/11/07 13:46:55;;;;;;;;;;;16.10;89.20;;;;;;5068096;28;19912;-76
2022/11/07 13:49:24;;;;;;;;;;;16.20;87.60;;;;;;5066237;28;19913;-76
2022/11/07 13:51:50;;;;;;;;;;;16.20;87.50;;;;;;5067508;28;19966;-75
2022/11/07 13:54:26;;;;;;;;;;;16.10;86.90;;;;;;5087802;28;20438;-76
2022/11/07 13:57:00;;;;;;;;;;;16.20;87.40;;;;;;5059535;28;19916;-76
2022/11/07 13:59:26;;;;;;;;;;;16.20;86.10;;;;;;5068047;28;19991;-76
2022/11/07 14:01:53;;;;;;;;;;;16.10;86.20;;;;;;5059396;28;20079;-76
2022/11/07 14:04:20;;;;;;;;;;;16.00;85.50;;;;;;5066774;28;19965;-78
2022/11/07 14:06:46;;;;;;;;;;;16.00;85.90;;;;;;5066714;28;19912;-76
2022/11/07 14:09:17;;;;;;;;;;;16.10;85.90;;;;;;5070214;28;19916;-76
2022/11/07 14:11:43;;;;;;;;;;;16.00;87.30;;;;;;5067760;28;19920;-75
2022/11/07 14:14:09;;;;;;;;;;;15.80;87.50;;;;;;5068066;28;19952;-76
2022/11/07 14:16:36;;;;;;;;;;;15.80;88.20;;;;;;5067517;28;19952;-76
2022/11/07 14:19:05;;;;;;;;;;;15.60;88.80;;;;;;5065780;28;19951;-76
2022/11/07 14:21:33;;;;;;;;;;;15.70;88.70;;;;;;5067086;28;19971;-76
2022/11/07 14:23:58;;;;;;;;;;;15.80;87.50;;;;;;5065996;28;19913;-76
2022/11/07 14:26:26;;;;;;;;;;;15.60;88.30;;;;;;5061253;28;19913;-76
2022/11/07 14:28:53;;;;;;;;;;;15.50;89.70;;;;;;5067429;28;19917;-76
2022/11/07 14:31:23;;;;;;;;;;;15.80;89.10;;;;;;5065626;28;19912;-76
2022/11/07 14:33:50;;;;;;;;;;;15.80;88.80;;;;;;5065756;28;19978;-76
2022/11/07 14:36:16;;;;;;;;;;;15.70;89.30;;;;;;5061277;28;20406;-76
2022/11/07 14:38:48;;;;;;;;;;;15.70;89.40;;;;;;5067483;28;19913;-76